Flight Track Log - Related Links

Times and Time Zones

All times are in EST time to prevent confusion due to time zone crossing. See the AAL1388 flight status page for this flight to view local times or setup timezone preferences in your user account.

Time Position Orientation Groundspeed Altitude Reporting Facility
EST Latitude Longitude Course Direction KTS MPH feet Rate Location/Type
Thu 12:50:54 PM 26.5231 -81.5464 303° West 240 276 3,200  Level Miami Center
Thu 12:51:00 PM 26.2793 -82.0999 230° Southwest  Level FlightAware Approximate
Thu 12:51:54 PM 26.4711 -81.5397 173° South 258 297 5,200  Level Miami Center
Thu 12:52:00 PM 26.2143 -82.1865 230° Southwest  Level FlightAware Approximate
Thu 12:53:00 PM 26.1500 -82.2719 270° West  Level FlightAware Approximate
Thu 12:54:00 PM 26.1071 -82.3622 303° West  Level FlightAware Approximate
Thu 12:55:00 PM 26.1602 -82.4531 303° West  Level FlightAware Approximate
Thu 12:56:00 PM 26.2133 -82.5442 303° West  Level FlightAware Approximate
Thu 12:57:09 PM 26.4176 -81.9687 294° West 365 420 16,700  Level FlightAware ADS-B
Thu 12:58:49 PM 26.4901 -82.1512 294° West 389 448 20,400 2,314 Climbing FlightAware ADS-B
Thu 12:59:29 PM 26.5192 -82.2241 294° West 388 447 22,100 1,826 Climbing FlightAware ADS-B
Thu 01:02:39 PM 26.6631 -82.5895 294° West 418 481 27,400 1,687 Climbing FlightAware ADS-B
Thu 01:04:10 PM 26.7296 -82.7590 293° West 390 449 30,000 1,111 Climbing FlightAware ADS-B
Thu 01:04:54 PM 26.7575 -82.8392 293° West 398 458 29,900  Descending Miami Center
Thu 01:05:54 PM 26.8008 -82.9506 294° West 398 458 30,000 50 Climbing Miami Center
Thu 01:06:54 PM 26.8422 -83.0575 293° West 393 452 30,000 -50 Level Miami Center
Thu 01:07:54 PM 26.8872 -83.1714 294° West 393 452 29,900  Descending Miami Center
Thu 01:08:54 PM 26.9264 -83.2783 292° West 383 441 30,000  Climbing Miami Center
Thu 01:09:54 PM 26.9736 -83.3881 296° West 383 441 29,900  Descending Miami Center
Thu 01:10:54 PM 27.0106 -83.4950 291° West 383 441 30,000  Climbing Miami Center
Thu 01:11:54 PM 27.0533 -83.6044 294° West 383 441 29,900  Descending Miami Center
Thu 01:12:54 PM 27.0983 -83.7144 295° West 383 441 30,000 50 Climbing Miami Center
Thu 01:13:54 PM 27.1389 -83.8264 292° West 383 441 30,000  Level Miami Center
Thu 01:14:54 PM 27.1794 -83.9361 293° West 383 441 30,000 -50 Level Miami Center
Thu 01:15:54 PM 27.2242 -84.0461 295° West 383 441 29,900  Descending Miami Center
Thu 01:16:54 PM 27.2647 -84.1514 293° West 377 434 30,000  Climbing Miami Center
Thu 01:17:54 PM 27.3050 -84.2589 293° West 377 434 29,900 645 Descending Miami Center
Thu 01:20:00 PM 27.3869 -84.4789 293° West 386 444 32,000 645 Climbing Jacksonville Center
Thu 01:21:00 PM 27.4253 -84.5847 292° West 380 437 31,900  Descending Jacksonville Center
Thu 01:22:00 PM 27.4617 -84.6858 292° West 368 423 32,000 50 Climbing Jacksonville Center
Thu 01:22:59 PM 27.5044 -84.7864 296° West 361 415 32,000 -50 Level Houston Center
Thu 01:24:01 PM 27.5464 -84.9017 292° West 356 410 31,900  Descending Houston Center
Thu 01:25:03 PM 27.5844 -85.0042 293° West 356 410 32,000 48 Climbing Houston Center
Thu 01:26:05 PM 27.6228 -85.1086 293° West 357 411 32,000  Level Houston Center
Thu 01:27:00 PM 27.6617 -85.2211 291° West 364 419 32,000 -52 Level Jacksonville Center
Thu 01:28:00 PM 27.7014 -85.3181 295° West 364 419 31,900 -50 Descending Jacksonville Center
Thu 01:29:00 PM 27.7389 -85.4292 291° West 359 413 31,900 50 Level Jacksonville Center
Thu 01:30:00 PM 27.7786 -85.5406 292° West 371 427 32,000 50 Climbing Jacksonville Center
Thu 01:31:00 PM 27.8158 -85.6469 292° West 371 427 32,000  Level Jacksonville Center
Thu 01:32:00 PM 27.8553 -85.7536 293° West 371 427 32,000 -50 Level Jacksonville Center
Thu 01:33:00 PM 27.8947 -85.8603 293° West 368 423 31,900  Descending Jacksonville Center
Thu 01:34:00 PM 27.9319 -85.9600 293° West 373 429 32,000  Climbing Jacksonville Center
Thu 01:35:00 PM 27.9711 -86.0669 293° West 368 423 31,900 -50 Descending Jacksonville Center
Thu 01:36:00 PM 28.0139 -86.1858 292° West 375 432 31,900 50 Level Jacksonville Center
Thu 01:37:00 PM 28.0508 -86.2928 291° West 369 425 32,000 50 Climbing Jacksonville Center
Thu 01:38:00 PM 28.0897 -86.4000 292° West 369 425 32,000  Level Jacksonville Center
Thu 01:39:00 PM 28.1303 -86.5119 292° West 377 434 32,000  Level Jacksonville Center
Thu 01:40:00 PM 28.1689 -86.6194 292° West 377 434 32,000  Level Jacksonville Center
Thu 01:41:00 PM 28.2075 -86.7314 291° West 372 428 32,000  Level Jacksonville Center
Thu 01:42:00 PM 28.2497 -86.8461 293° West 381 438 32,000  Level Jacksonville Center
Thu 01:43:00 PM 28.2861 -86.9536 291° West 376 433 32,000 -50 Level Jacksonville Center
Thu 01:44:00 PM 28.3225 -87.0564 292° West 371 427 31,900  Descending Jacksonville Center
Thu 01:45:00 PM 28.3817 -87.1625 302° West 379 436 32,000 56 Climbing Jacksonville Center
Thu 01:45:47 PM 28.4153 -87.2269 301° West 387 445 32,000 -55 Level Houston Center
Thu 01:46:49 PM 28.4711 -87.3311 301° West 387 445 31,900 -48 Descending Houston Center
Thu 01:47:51 PM 28.5378 -87.4553 301° West 386 444 31,900 48 Level Houston Center
Thu 01:48:53 PM 28.5928 -87.5581 301° West 385 443 32,000  Climbing Houston Center
Thu 01:49:56 PM 28.6469 -87.6625 301° West 384 442 31,900  Descending Houston Center
Thu 01:50:58 PM 28.7025 -87.7681 301° West 385 443 32,000  Climbing Houston Center
Thu 01:52:00 PM 28.7572 -87.8714 301° West 385 443 31,900  Descending Houston Center
Thu 01:53:02 PM 28.8236 -87.9978 301° West 385 443 32,000  Climbing Houston Center
Thu 01:54:04 PM 28.8786 -88.1011 301° West 385 443 31,900  Descending Houston Center
Thu 01:55:06 PM 28.9344 -88.2086 301° West 392 451 32,000 48 Climbing Houston Center
Thu 01:56:09 PM 28.9894 -88.3150 301° West 392 451 32,000 -48 Level Houston Center
Thu 01:57:11 PM 29.0450 -88.4222 301° West 392 451 31,900  Descending Houston Center
Thu 01:58:13 PM 29.1111 -88.5489 301° West 391 450 32,000  Climbing Houston Center
Thu 01:59:15 PM 29.1667 -88.6561 301° West 391 450 31,900 -48 Descending Houston Center
Thu 02:00:17 PM 29.2222 -88.7625 301° West 391 450 31,900  Level Houston Center
Thu 02:01:20 PM 29.2775 -88.8689 301° West 391 450 31,900  Level Houston Center
Thu 02:02:22 PM 29.3333 -88.9772 301° West 391 450 31,900  Level Houston Center
Thu 02:03:24 PM 29.3881 -89.0869 300° West 391 450 31,900  Level Houston Center
Thu 02:04:26 PM 29.4525 -89.2119 301° West 390 449 31,900 48 Level Houston Center
Thu 02:05:28 PM 29.5064 -89.3189 300° West 389 448 32,000 48 Climbing Houston Center
Thu 02:06:31 PM 29.5622 -89.4292 300° West 391 450 32,000 -48 Level Houston Center
Thu 02:07:33 PM 29.6169 -89.5378 300° West 392 451 31,900  Descending Houston Center
Thu 02:08:35 PM 29.6725 -89.6506 300° West 398 458 32,000 48 Climbing Houston Center
Thu 02:09:37 PM 29.7294 -89.7633 300° West 403 464 32,000  Level Houston Center
Thu 02:10:39 PM 29.7969 -89.8967 300° West 403 464 32,000  Level Houston Center
Thu 02:11:41 PM 29.8544 -90.0097 300° West 404 465 32,000 -48 Level Houston Center
Thu 02:12:44 PM 29.9186 -90.1208 304° West 410 472 31,900  Descending Houston Center
Thu 02:13:46 PM 29.9839 -90.2344 304° West 419 482 32,000  Climbing Houston Center
Thu 02:14:48 PM 30.0494 -90.3481 304° West 420 483 31,900 -48 Descending Houston Center
Thu 02:15:50 PM 30.1147 -90.4608 304° West 420 483 31,900 48 Level Houston Center
Thu 02:16:52 PM 30.1794 -90.5736 304° West 420 483 32,000 48 Climbing Houston Center
Thu 02:17:54 PM 30.2558 -90.7081 303° West 419 482 32,000  Level Houston Center
Thu 02:18:57 PM 30.3203 -90.8203 304° West 419 482 32,000  Level Houston Center
Thu 02:19:59 PM 30.3856 -90.9319 304° West 418 481 32,000  Level Houston Center
Thu 02:21:01 PM 30.4486 -91.0450 303° West 418 481 32,000  Level Houston Center
Thu 02:22:03 PM 30.5119 -91.1575 303° West 417 480 32,000  Level Houston Center
Thu 02:23:05 PM 30.5744 -91.2686 303° West 417 480 32,000 -48 Level Houston Center
Thu 02:24:08 PM 30.6483 -91.4014 303° West 410 472 31,900  Descending Houston Center
Thu 02:25:10 PM 30.7017 -91.4981 303° West 410 472 32,000 48 Climbing Houston Center
Thu 02:26:12 PM 30.7764 -91.6289 304° West 408 470 32,000  Level Houston Center
Thu 02:31:38 PM 31.1107 -92.2343 303° West 414 476 32,000  Level FlightAware ADS-B (KHPY)
Thu 02:32:10 PM 31.1471 -92.3006 303° West 414 476 32,000  Level FlightAware ADS-B (KHPY)
Thu 02:32:21 PM 31.1482 -92.3027 303° West 414 476 32,000  Level FlightAware ADS-B (KHPY)
Thu 02:33:45 PM 31.2450 -92.4795 303° West 415 478 32,000  Level FlightAware ADS-B (KHPY)
Thu 02:34:15 PM 31.2710 -92.5388 294° West 411 473 32,000  Level FlightAware ADS-B (KHPY)
Thu 02:34:43 PM 31.2915 -92.5928 294° West 411 473 32,000  Level FlightAware ADS-B (KHPY)
Thu 02:35:15 PM 31.3166 -92.6589 294° West 412 474 32,000  Level FlightAware ADS-B (KHPY)
Thu 02:35:45 PM 31.3361 -92.7105 294° West 411 473 32,000  Level FlightAware ADS-B (KHPY)
Thu 02:35:54 PM 31.3455 -92.7353 294° West 411 473 32,000  Level FlightAware ADS-B (KHPY)
Thu 02:36:41 PM 31.3775 -92.8201 294° West 412 474 32,000  Level FlightAware ADS-B (KHPY)
Thu 02:37:16 PM 31.4093 -92.9044 294° West 412 474 32,000  Level FlightAware ADS-B (KHPY)
Thu 02:37:45 PM 31.4256 -92.9482 294° West 412 474 32,000  Level FlightAware ADS-B (KHPY)
Thu 02:38:15 PM 31.4534 -93.0226 294° West 413 475 32,000  Level FlightAware ADS-B (KHPY)
Thu 02:38:46 PM 31.4777 -93.0875 294° West 414 476 32,000  Level FlightAware ADS-B (KHPY)
Thu 02:39:16 PM 31.5006 -93.1492 294° West 414 476 32,000  Level FlightAware ADS-B (KHPY)
Thu 02:39:31 PM 31.5115 -93.1790 294° West 414 476 32,000  Level FlightAware ADS-B (KHPY)
Thu 02:40:04 PM 31.5307 -93.2308 294° West 414 476 32,000  Level FlightAware ADS-B
Thu 02:40:38 PM 31.5625 -93.3164 294° West 414 476 32,000  Level FlightAware ADS-B
Thu 02:40:46 PM 31.5676 -93.3302 294° West 415 478 32,000  Level FlightAware ADS-B (KHPY)
Thu 02:41:14 PM 31.5907 -93.3920 294° West 415 478 32,000  Level FlightAware ADS-B (KHPY)
Thu 02:41:43 PM 31.6056 -93.4321 294° West 415 478 32,000  Level FlightAware ADS-B (KHPY)
Thu 02:41:51 PM 31.6178 -93.4650 294° West 414 476 32,000  Level FlightAware ADS-B
Thu 02:42:13 PM 31.6330 -93.5061 294° West 415 478 32,000  Level FlightAware ADS-B (KHPY)
Thu 02:42:23 PM 31.6435 -93.5350 292° West 413 475 32,000  Level FlightAware ADS-B
Thu 02:42:35 PM 31.6479 -93.5496 294° West 415 478 32,000  Level FlightAware ADS-B (KHPY)
Thu 02:43:22 PM 31.6721 -93.6618 284° West 412 474 32,000  Level FlightAware ADS-B
Thu 02:44:26 PM 31.7017 -93.8003 284° West 412 474 32,000  Level FlightAware ADS-B
Thu 02:44:58 PM 31.7148 -93.8633 284° West 411 473 32,000  Level FlightAware ADS-B
Thu 02:45:36 PM 31.7318 -93.9444 284° West 411 473 32,000  Level FlightAware ADS-B
Thu 02:46:17 PM 31.7516 -94.0393 284° West 410 472 32,000  Level FlightAware ADS-B
Thu 02:49:05 PM 31.8263 -94.3993 284° West 405 466 32,000 -43 Level FlightAware ADS-B
Thu 02:53:20 PM 31.9376 -94.9468 284° West 413 475 31,700 -168 Descending FlightAware ADS-B (KHPY)
Thu 02:53:51 PM 31.9515 -95.0167 284° West 415 478 31,200 -984 Descending FlightAware ADS-B (KHPY)
Thu 02:54:21 PM 31.9649 -95.0841 284° West 424 488 30,700 -1,017 Descending FlightAware ADS-B (KHPY)
Thu 02:54:50 PM 31.9778 -95.1492 284° West 426 490 30,200 -915 Descending FlightAware ADS-B (KHPY)
Thu 02:55:20 PM 31.9935 -95.2175 290° West 425 489 29,800 -885 Descending FlightAware ADS-B (KHPY)
Thu 02:55:51 PM 32.0120 -95.2750 291° West 426 490 29,300 -984 Descending FlightAware ADS-B (KHPY)
Thu 02:56:21 PM 32.0346 -95.3452 291° West 425 489 28,800 -1,017 Descending FlightAware ADS-B (KHPY)
Thu 02:56:50 PM 32.0549 -95.4085 291° West 423 487 28,300 -1,016 Descending FlightAware ADS-B (KHPY)
Thu 02:58:25 PM 32.1194 -95.6112 291° West 413 475 26,700 -993 Descending FlightAware ADS-B (KHPY)
Thu 02:59:15 PM 32.1513 -95.7116 291° West 411 473 25,900 -992 Descending FlightAware ADS-B (KHPY)
Thu 03:00:26 PM 32.1983 -95.8612 291° West 411 473 24,700 -1,041 Descending FlightAware ADS-B (KHPY)
Thu 03:00:53 PM 32.2168 -95.9201 291° West 408 470 24,200 -1,220 Descending FlightAware ADS-B (KHPY)
Thu 03:01:25 PM 32.2295 -95.9603 291° West 407 468 23,500 -1,667 Descending FlightAware ADS-B (KHPY)
Thu 03:01:47 PM 32.2463 -96.0136 291° West 405 466 22,700 -2,400 Descending FlightAware ADS-B (KHPY)
Thu 03:02:25 PM 32.2771 -96.1126 291° West 391 450 21,100 -2,471 Descending FlightAware ADS-B (KHPY)
Thu 03:02:55 PM 32.2949 -96.1697 291° West 383 441 19,900 -2,262 Descending FlightAware ADS-B (KHPY)
Thu 03:03:26 PM 32.3129 -96.2277 290° West 373 429 18,800 -2,276 Descending FlightAware ADS-B (KHPY)
Thu 03:03:53 PM 32.3302 -96.2834 291° West 367 422 17,700 -8,778 Descending FlightAware ADS-B (KHPY)
Thu 03:04:20 PM 32.3458 -96.3336 289° West 355 409 10,900 -1,312 Descending FlightAware ADS-B
Thu 03:09:04 PM 32.5896 -96.6969 314° West 270 311 10,900  Level FlightAware ADS-B
Thu 03:09:45 PM 32.6239 -96.7379 314° West 268 308 10,900  Level FlightAware ADS-B
Thu 03:10:26 PM 32.6613 -96.7826 314° West 267 307 10,900  Level FlightAware ADS-B
Thu 03:11:06 PM 32.6960 -96.8241 314° West 269 310 10,900  Level FlightAware ADS-B
Thu 03:11:43 PM 32.7289 -96.8633 314° West 270 311 10,900  Level FlightAware ADS-B
Thu 03:12:24 PM 32.7653 -96.9047 317° Northwest 271 312 10,900 -73 Level FlightAware ADS-B
Thu 03:13:05 PM 32.8015 -96.9438 317° Northwest 262 302 10,800 -615 Descending FlightAware ADS-B
Thu 03:13:42 PM 32.8353 -96.9802 317° Northwest 251 289 10,100 -828 Descending FlightAware ADS-B
Thu 03:14:03 PM 32.8542 -97.0004 318° Northwest 233 268 10,000 -585 Descending FlightAware ADS-B
Thu 03:14:23 PM 32.8676 -97.0144 318° Northwest 223 257 9,700 -1,024 Descending FlightAware ADS-B
Thu 03:14:44 PM 32.8835 -97.0311 318° Northwest 216 249 9,300 -1,463 Descending FlightAware ADS-B
Thu 03:15:04 PM 32.9009 -97.0492 319° Northwest 219 252 8,700 -2,049 Descending FlightAware ADS-B
Thu 03:15:25 PM 32.9152 -97.0638 319° Northwest 222 255 7,900 -1,571 Descending FlightAware ADS-B
Thu 03:15:46 PM 32.9307 -97.0791 320° Northwest 213 245 7,600 -1,317 Descending FlightAware ADS-B
Thu 03:16:06 PM 32.9462 -97.0943 320° Northwest 198 228 7,000 -1,756 Descending FlightAware ADS-B
Thu 03:16:27 PM 32.9620 -97.1044 338° Northwest 202 232 6,400 -1,784 Descending FlightAware ADS-B
Thu 03:16:43 PM 32.9763 -97.1108 339° North 202 232 5,900 -1,946 Descending FlightAware ADS-B
Thu 03:17:04 PM 32.9963 -97.1155 356° North 205 236 5,200 -1,902 Descending FlightAware ADS-B
Thu 03:17:24 PM 33.0144 -97.1164 358° North 206 237 4,600 -1,688 Descending FlightAware ADS-B
Thu 03:17:36 PM 33.0260 -97.1163 North 204 235 4,300 -1,800 Descending FlightAware ADS-B
Thu 03:17:44 PM 33.0351 -97.1143 14° North 199 229 4,000 -1,765 Descending FlightAware ADS-B
Thu 03:17:53 PM 33.0412 -97.1101 28° Northeast 197 227 3,800 -1,429 Descending FlightAware ADS-B
Thu 03:18:05 PM 33.0455 -97.1048 47° Northeast 191 220 3,500 -1,500 Descending FlightAware ADS-B
Thu 03:18:13 PM 33.0494 -97.0916 80° East 184 212 3,300 -1,500 Descending FlightAware ADS-B
Thu 03:18:25 PM 33.0484 -97.0816 103° East 181 208 3,000 -1,714 Descending FlightAware ADS-B
Thu 03:18:34 PM 33.0444 -97.0737 123° Southeast 177 204 2,700 -1,765 Descending FlightAware ADS-B
Thu 03:18:42 PM 33.0397 -97.0690 142° Southeast 170 196 2,500 -1,500 Descending FlightAware ADS-B
Thu 03:19:02 PM 33.0255 -97.0587 152° Southeast 164 189 2,000 -1,091 Descending FlightAware ADS-B
Thu 03:19:15 PM 33.0168 -97.0556 163° South 162 186 1,900 -286 Descending FlightAware ADS-B
Thu 03:19:23 PM 33.0114 -97.0548 172° South 163 188 1,900  Level FlightAware ADS-B
Thu 03:19:56 PM 33.0014 -97.0544 181° South 152 175 1,900  Level FlightAware ADS-B
Thu 03:20:12 PM 32.9747 -97.0544 178° South 144 166 1,900 -706 Level FlightAware ADS-B
Thu 03:21:04 PM 32.9333 -97.0500 178° South 144 166 1,100 -923 Descending Dallas / Fort Worth TRACON

Login

Don't have an account? Register now (free) for customized features, flight alerts, and more!